Time;durP1;ratioP1;P1;durP2;ratioP2;P2;SDS_P1;SDS_P2;PMS_P1;PMS_P2;Temp;Humidity;BMP_temperature;BMP_pressure;BME280_temperature;BME280_humidity;BME280_pressure;Samples;Min_cycle;Max_cycle;Signal;HPM_P1;HPM_P2
2022/12/25 00:01:54;;;;;;;;;;;;;;;;;;5003784;28;19925;-90
2022/12/25 00:04:20;;;;;;;;;;;;;;;;;;5243037;23;19916;-89
2022/12/25 00:06:45;;;;;;;;;;;;;;;;;;5042927;28;19921;-90
2022/12/25 00:09:11;;;;;;;;;;;;;;;;;;5057330;28;19904;-91
2022/12/25 00:11:36;;;;;;;;;;;;;;;;;;5051768;28;19897;-90
2022/12/25 00:14:02;;;;;;;;;;;;;;;;;;5021390;28;19922;-89
2022/12/25 00:16:31;;;;;;;;;;;;;;;;;;5022025;28;19917;-90
2022/12/25 00:19:00;;;;;;;;;;;;;;;;;;5021804;28;19993;-90
2022/12/25 00:21:25;;;;;;;;;;;;;;;;;;5037477;28;19897;-89
2022/12/25 00:23:51;;;;;;;;;;;;;;;;;;5037041;28;19968;-89
2022/12/25 00:26:16;;;;;;;;;;;;;;;;;;5021075;28;19921;-90
2022/12/25 00:28:45;;;;;;;;;;;;;;;;;;5038345;28;19921;-90
2022/12/25 00:31:10;;;;;;;;;;;;;;;;;;5007374;28;19996;-90
2022/12/25 00:33:36;;;;;;;;;;;;;;;;;;5038966;28;20303;-90
2022/12/25 00:36:05;;;;;;;;;;;;;;;;;;5007047;28;19910;-91
2022/12/25 00:38:32;;;;;;;;;;;;;;;;;;5041256;28;19906;-90
2022/12/25 00:40:58;;;;;;;;;;;;;;;;;;5023979;28;19960;-88
2022/12/25 00:43:24;;;;;;;;;;;;;;;;;;5008113;28;19914;-90
2022/12/25 00:56:24;;;;;;;;;;;;;;;;;;5736445;23;19989;-89
2022/12/25 00:58:49;;;;;;;;;;;;;;;;;;5004303;28;19918;-90
2022/12/25 01:06:31;;;;;;;;;;;;;;;;;;6111570;23;19920;-92
2022/12/25 01:14:29;;;;;;;;;;;;;;;;;;5454705;22;20108;-91
2022/12/25 01:19:36;;;;;;;;;;;;;;;;;;5640140;23;19910;-93
2022/12/25 01:22:01;;;;;;;;;;;;;;;;;;5203047;23;19925;-93
2022/12/25 01:24:26;;;;;;;;;;;;;;;;;;5035040;28;19913;-93
2022/12/25 01:26:52;;;;;;;;;;;;;;;;;;5033337;28;19913;-91
2022/12/25 01:29:17;;;;;;;;;;;;;;;;;;5042702;28;20288;-93
2022/12/25 01:31:43;;;;;;;;;;;;;;;;;;5019384;28;19917;-92
2022/12/25 01:34:09;;;;;;;;;;;;;;;;;;4986584;28;19981;-92
2022/12/25 01:36:34;;;;;;;;;;;;;;;;;;4985703;28;19918;-92
2022/12/25 01:38:59;;;;;;;;;;;;;;;;;;4985946;28;19953;-91
2022/12/25 01:41:25;;;;;;;;;;;;;;;;;;4984393;28;19913;-93
2022/12/25 01:43:50;;;;;;;;;;;;;;;;;;4984936;28;20012;-94
2022/12/25 01:46:16;;;;;;;;;;;;;;;;;;4998818;28;19914;-93
2022/12/25 01:48:41;;;;;;;;;;;;;;;;;;4982500;28;20354;-93
2022/12/25 01:51:06;;;;;;;;;;;;;;;;;;4983743;28;19913;-92
2022/12/25 01:53:32;;;;;;;;;;;;;;;;;;4990175;28;19925;-92
2022/12/25 01:55:57;;;;;;;;;;;;;;;;;;5003479;28;19916;-93
2022/12/25 01:58:23;;;;;;;;;;;;;;;;;;5006095;28;19928;-93
2022/12/25 02:00:48;;;;;;;;;;;;;;;;;;5000328;28;19918;-92
2022/12/25 02:03:14;;;;;;;;;;;;;;;;;;4989726;28;19913;-91
2022/12/25 02:05:39;;;;;;;;;;;;;;;;;;4986359;28;20373;-92
2022/12/25 02:08:05;;;;;;;;;;;;;;;;;;4987494;28;20372;-91
2022/12/25 02:10:43;;;;;;;;;;;;;;;;;;4984733;28;19917;-92
2022/12/25 02:13:08;;;;;;;;;;;;;;;;;;4998353;28;20308;-93
2022/12/25 02:15:34;;;;;;;;;;;;;;;;;;4983923;28;19920;-94
2022/12/25 02:17:59;;;;;;;;;;;;;;;;;;4985658;28;19913;-94
2022/12/25 02:20:25;;;;;;;;;;;;;;;;;;4983952;28;20396;-94
2022/12/25 02:22:50;;;;;;;;;;;;;;;;;;4982583;28;19924;-92
2022/12/25 02:25:15;;;;;;;;;;;;;;;;;;4981777;28;20377;-94
2022/12/25 02:27:41;;;;;;;;;;;;;;;;;;4980998;28;20488;-93
2022/12/25 02:30:06;;;;;;;;;;;;;;;;;;4983660;28;19935;-93
2022/12/25 02:32:32;;;;;;;;;;;;;;;;;;4981506;28;20397;-92
2022/12/25 02:34:57;;;;;;;;;;;;;;;;;;4981352;28;20416;-94
2022/12/25 02:37:23;;;;;;;;;;;;;;;;;;4981739;28;20296;-93
2022/12/25 02:39:57;;;;;;;;;;;;;;;;;;4981760;28;20291;-93
2022/12/25 02:42:23;;;;;;;;;;;;;;;;;;5017014;28;20400;-92
2022/12/25 03:11:44;;;;;;;;;;;;;;;;;;5099537;22;19922;-87
2022/12/25 03:16:55;;;;;;;;;;;;;;;;;;5001875;28;19902;-87
2022/12/25 03:27:28;;;;;;;;;;;;;;;;;;5016029;28;19953;-89
2022/12/25 03:32:57;;;;;;;;;;;;;;;;;;4982945;28;19914;-88
2022/12/25 03:35:24;;;;;;;;;;;;;;;;;;4978470;28;19918;-90
2022/12/25 04:36:13;;;;;;;;;;;;;;;;;;5018597;28;19932;-91
2022/12/25 04:38:47;;;;;;;;;;;;;;;;;;5019374;28;19932;-90
2022/12/25 04:41:15;;;;;;;;;;;;;;;;;;5016955;28;19918;-88
2022/12/25 04:43:41;;;;;;;;;;;;;;;;;;5000886;28;19898;-90
2022/12/25 04:46:06;;;;;;;;;;;;;;;;;;5017187;28;19937;-90
2022/12/25 04:48:32;;;;;;;;;;;;;;;;;;5016177;28;19913;-90
2022/12/25 04:50:58;;;;;;;;;;;;;;;;;;4999435;28;19925;-91
2022/12/25 04:53:35;;;;;;;;;;;;;;;;;;4989192;28;19949;-90
2022/12/25 04:56:00;;;;;;;;;;;;;;;;;;5019466;28;19928;-90
2022/12/25 04:58:31;;;;;;;;;;;;;;;;;;5020500;28;19937;-90
2022/12/25 05:00:57;;;;;;;;;;;;;;;;;;4987650;28;19902;-90
2022/12/25 05:05:51;;;;;;;;;;;;;;;;;;5040736;28;19941;-89
2022/12/25 05:08:18;;;;;;;;;;;;;;;;;;5338536;23;19921;-90
2022/12/25 05:10:47;;;;;;;;;;;;;;;;;;5021402;28;19913;-91
2022/12/25 05:13:14;;;;;;;;;;;;;;;;;;5018892;28;19914;-89
2022/12/25 05:15:41;;;;;;;;;;;;;;;;;;5052121;23;19944;-89
2022/12/25 05:18:07;;;;;;;;;;;;;;;;;;5003411;28;19918;-89
2022/12/25 05:23:14;;;;;;;;;;;;;;;;;;6101912;22;19920;-89
2022/12/25 05:25:39;;;;;;;;;;;;;;;;;;5003218;28;19902;-90
2022/12/25 05:30:46;;;;;;;;;;;;;;;;;;5217323;23;19910;-87
2022/12/25 05:33:12;;;;;;;;;;;;;;;;;;5148744;23;19930;-86
2022/12/25 05:35:40;;;;;;;;;;;;;;;;;;5101454;22;19916;-84
2022/12/25 05:38:08;;;;;;;;;;;;;;;;;;5017895;28;19897;-86
2022/12/25 05:40:34;;;;;;;;;;;;;;;;;;5002830;28;20289;-87
2022/12/25 05:43:00;;;;;;;;;;;;;;;;;;4986048;28;19985;-86
2022/12/25 05:45:26;;;;;;;;;;;;;;;;;;4987024;28;19926;-87
2022/12/25 05:47:51;;;;;;;;;;;;;;;;;;5018562;28;19898;-85
2022/12/25 05:50:19;;;;;;;;;;;;;;;;;;5002837;28;19902;-86
2022/12/25 05:52:45;;;;;;;;;;;;;;;;;;4986992;28;19961;-86
2022/12/25 05:55:14;;;;;;;;;;;;;;;;;;4986099;28;19998;-87
2022/12/25 05:57:39;;;;;;;;;;;;;;;;;;5003295;28;19949;-87
2022/12/25 06:00:05;;;;;;;;;;;;;;;;;;5003522;28;19937;-87
2022/12/25 06:02:37;;;;;;;;;;;;;;;;;;5020062;28;19902;-88
2022/12/25 06:05:03;;;;;;;;;;;;;;;;;;4987030;28;19964;-88
2022/12/25 06:07:29;;;;;;;;;;;;;;;;;;4986442;28;19912;-87
2022/12/25 06:09:54;;;;;;;;;;;;;;;;;;5002532;28;19988;-88
2022/12/25 06:12:22;;;;;;;;;;;;;;;;;;4986624;28;20400;-88
2022/12/25 06:14:48;;;;;;;;;;;;;;;;;;4986123;28;19925;-87
2022/12/25 06:17:14;;;;;;;;;;;;;;;;;;5002576;28;19928;-88
2022/12/25 06:19:43;;;;;;;;;;;;;;;;;;4986767;28;19898;-88
2022/12/25 06:22:08;;;;;;;;;;;;;;;;;;4985905;28;19921;-88
2022/12/25 06:24:34;;;;;;;;;;;;;;;;;;5002362;28;19902;-88
2022/12/25 06:27:00;;;;;;;;;;;;;;;;;;5019032;28;19918;-88
2022/12/25 06:29:25;;;;;;;;;;;;;;;;;;5018366;28;19925;-87
2022/12/25 06:31:55;;;;;;;;;;;;;;;;;;5001836;28;19954;-88
2022/12/25 06:34:21;;;;;;;;;;;;;;;;;;4984731;28;19918;-85
2022/12/25 06:36:49;;;;;;;;;;;;;;;;;;4985168;28;19917;-85
2022/12/25 06:39:15;;;;;;;;;;;;;;;;;;5001814;28;19917;-87
2022/12/25 06:41:40;;;;;;;;;;;;;;;;;;4985406;28;19961;-86
2022/12/25 06:44:06;;;;;;;;;;;;;;;;;;4986448;28;19929;-88
2022/12/25 06:46:34;;;;;;;;;;;;;;;;;;4986499;28;19902;-87
2022/12/25 06:49:00;;;;;;;;;;;;;;;;;;4986490;28;19902;-87
2022/12/25 06:51:26;;;;;;;;;;;;;;;;;;5002049;28;19918;-88
2022/12/25 06:53:52;;;;;;;;;;;;;;;;;;5001922;28;19902;-88
2022/12/25 06:56:20;;;;;;;;;;;;;;;;;;4985287;28;19918;-88
2022/12/25 06:58:49;;;;;;;;;;;;;;;;;;5002478;28;19950;-86
2022/12/25 07:01:17;;;;;;;;;;;;;;;;;;5002900;28;19936;-87
2022/12/25 07:03:43;;;;;;;;;;;;;;;;;;4984920;28;19914;-86
2022/12/25 07:06:08;;;;;;;;;;;;;;;;;;5000769;28;19937;-87
2022/12/25 07:08:34;;;;;;;;;;;;;;;;;;5001193;28;19918;-88
2022/12/25 07:11:00;;;;;;;;;;;;;;;;;;5002127;28;19902;-87
2022/12/25 07:13:25;;;;;;;;;;;;;;;;;;5080197;23;19937;-87
2022/12/25 07:15:52;;;;;;;;;;;;;;;;;;5037830;28;19925;-88
2022/12/25 07:18:21;;;;;;;;;;;;;;;;;;5022258;28;19898;-87
2022/12/25 07:20:47;;;;;;;;;;;;;;;;;;5021745;28;19902;-86
2022/12/25 07:23:15;;;;;;;;;;;;;;;;;;5021685;28;20012;-86
2022/12/25 07:25:41;;;;;;;;;;;;;;;;;;5005463;28;19918;-87
2022/12/25 07:28:07;;;;;;;;;;;;;;;;;;5021850;28;19918;-87
2022/12/25 07:30:36;;;;;;;;;;;;;;;;;;5037869;28;19901;-87
2022/12/25 07:33:02;;;;;;;;;;;;;;;;;;5008339;28;19922;-87
2022/12/25 07:35:28;;;;;;;;;;;;;;;;;;5024633;28;19908;-88
2022/12/25 07:37:57;;;;;;;;;;;;;;;;;;5025474;28;19911;-86
2022/12/25 07:40:23;;;;;;;;;;;;;;;;;;5024822;28;19901;-88
2022/12/25 07:42:49;;;;;;;;;;;;;;;;;;5024609;28;19989;-88
2022/12/25 07:45:15;;;;;;;;;;;;;;;;;;5024765;28;19945;-88
2022/12/25 07:47:41;;;;;;;;;;;;;;;;;;5074706;23;19916;-87
2022/12/25 07:50:07;;;;;;;;;;;;;;;;;;5060279;28;19913;-87
2022/12/25 07:52:35;;;;;;;;;;;;;;;;;;5050051;28;19909;-87
2022/12/25 07:55:04;;;;;;;;;;;;;;;;;;5039916;28;19956;-87
2022/12/25 07:57:30;;;;;;;;;;;;;;;;;;5007149;28;19914;-86
2022/12/25 07:59:55;;;;;;;;;;;;;;;;;;5007151;28;19932;-87
2022/12/25 08:02:27;;;;;;;;;;;;;;;;;;5023185;28;19932;-86
2022/12/25 08:04:55;;;;;;;;;;;;;;;;;;5022776;28;19918;-87
2022/12/25 08:07:21;;;;;;;;;;;;;;;;;;5006798;28;19972;-87
2022/12/25 08:09:47;;;;;;;;;;;;;;;;;;5022883;28;19909;-86
2022/12/25 08:12:12;;;;;;;;;;;;;;;;;;5022677;28;19913;-87
2022/12/25 08:14:44;;;;;;;;;;;;;;;;;;5023044;28;19897;-87
2022/12/25 08:17:10;;;;;;;;;;;;;;;;;;5006953;28;19924;-87
2022/12/25 08:19:35;;;;;;;;;;;;;;;;;;5007074;28;19897;-87
2022/12/25 08:22:01;;;;;;;;;;;;;;;;;;5038708;28;19941;-86
2022/12/25 08:24:27;;;;;;;;;;;;;;;;;;5023217;28;19969;-87
2022/12/25 08:26:53;;;;;;;;;;;;;;;;;;5039689;28;20103;-87
2022/12/25 08:29:19;;;;;;;;;;;;;;;;;;5006838;28;19937;-87
2022/12/25 08:31:46;;;;;;;;;;;;;;;;;;5007570;28;19928;-87
2022/12/25 08:34:12;;;;;;;;;;;;;;;;;;5039627;28;19913;-88
2022/12/25 08:36:38;;;;;;;;;;;;;;;;;;5192480;23;19926;-88
2022/12/25 08:39:04;;;;;;;;;;;;;;;;;;4968921;28;19946;-88
2022/12/25 08:41:29;;;;;;;;;;;;;;;;;;4983807;28;19945;-87
2022/12/25 08:43:55;;;;;;;;;;;;;;;;;;4983110;28;19902;-87
2022/12/25 08:46:21;;;;;;;;;;;;;;;;;;4968685;28;19914;-89
2022/12/25 08:48:47;;;;;;;;;;;;;;;;;;5000723;28;19961;-88
2022/12/25 08:51:16;;;;;;;;;;;;;;;;;;4984894;28;19990;-87
2022/12/25 08:53:45;;;;;;;;;;;;;;;;;;5001147;28;19929;-88
2022/12/25 08:56:11;;;;;;;;;;;;;;;;;;5000687;28;19910;-88
2022/12/25 08:58:39;;;;;;;;;;;;;;;;;;4984165;28;19898;-88
2022/12/25 09:01:04;;;;;;;;;;;;;;;;;;4981916;28;19957;-87
2022/12/25 09:03:33;;;;;;;;;;;;;;;;;;4982249;28;20026;-88
2022/12/25 09:06:02;;;;;;;;;;;;;;;;;;5015327;28;19898;-87
2022/12/25 09:08:31;;;;;;;;;;;;;;;;;;4983096;28;19918;-88
2022/12/25 09:10:56;;;;;;;;;;;;;;;;;;4982949;28;19911;-87
2022/12/25 09:13:22;;;;;;;;;;;;;;;;;;4967839;28;19918;-88
2022/12/25 09:15:48;;;;;;;;;;;;;;;;;;4984044;28;19944;-86
2022/12/25 09:18:14;;;;;;;;;;;;;;;;;;5000494;28;19969;-86
2022/12/25 09:20:40;;;;;;;;;;;;;;;;;;4968925;28;19946;-86
2022/12/25 09:23:06;;;;;;;;;;;;;;;;;;4981780;28;19925;-86
2022/12/25 09:25:34;;;;;;;;;;;;;;;;;;4984278;28;19903;-87
2022/12/25 09:28:00;;;;;;;;;;;;;;;;;;4967999;28;19918;-87
2022/12/25 09:30:26;;;;;;;;;;;;;;;;;;4983813;28;19947;-87
2022/12/25 09:32:59;;;;;;;;;;;;;;;;;;4984299;28;19918;-86
2022/12/25 09:35:25;;;;;;;;;;;;;;;;;;4983487;28;19918;-86
2022/12/25 09:37:51;;;;;;;;;;;;;;;;;;4967451;28;19913;-86
2022/12/25 09:40:17;;;;;;;;;;;;;;;;;;4982931;28;19898;-84
2022/12/25 09:42:43;;;;;;;;;;;;;;;;;;4982930;28;19914;-86
2022/12/25 09:45:08;;;;;;;;;;;;;;;;;;4983343;28;19930;-85
2022/12/25 09:47:37;;;;;;;;;;;;;;;;;;4967798;28;19902;-85
2022/12/25 09:50:02;;;;;;;;;;;;;;;;;;4983961;28;19921;-86
2022/12/25 09:52:28;;;;;;;;;;;;;;;;;;5000205;28;19925;-85
2022/12/25 09:54:54;;;;;;;;;;;;;;;;;;4983892;28;19919;-86
2022/12/25 09:57:20;;;;;;;;;;;;;;;;;;4984209;28;19949;-87
2022/12/25 09:59:46;;;;;;;;;;;;;;;;;;4983658;28;19954;-86
2022/12/25 10:02:14;;;;;;;;;;;;;;;;;;4984279;28;19926;-86
2022/12/25 10:04:43;;;;;;;;;;;;;;;;;;4984492;28;19908;-86
2022/12/25 10:07:09;;;;;;;;;;;;;;;;;;4983723;28;19902;-86
2022/12/25 10:09:35;;;;;;;;;;;;;;;;;;4967892;28;19937;-87
2022/12/25 10:12:01;;;;;;;;;;;;;;;;;;4967596;28;19902;-86
2022/12/25 10:14:27;;;;;;;;;;;;;;;;;;4967515;28;19898;-85
2022/12/25 10:16:52;;;;;;;;;;;;;;;;;;4983601;28;19926;-86
2022/12/25 10:19:19;;;;;;;;;;;;;;;;;;4966560;28;19909;-85
2022/12/25 10:21:45;;;;;;;;;;;;;;;;;;4965659;28;19918;-86
2022/12/25 10:24:11;;;;;;;;;;;;;;;;;;4982852;28;19909;-86
2022/12/25 10:26:39;;;;;;;;;;;;;;;;;;4998128;28;19914;-86
2022/12/25 10:29:12;;;;;;;;;;;;;;;;;;4982283;28;19970;-85
2022/12/25 10:31:38;;;;;;;;;;;;;;;;;;4981711;28;19937;-86
2022/12/25 10:34:04;;;;;;;;;;;;;;;;;;4965269;28;19914;-86
2022/12/25 10:36:32;;;;;;;;;;;;;;;;;;4965737;28;19918;-86
2022/12/25 10:39:00;;;;;;;;;;;;;;;;;;4981161;28;19969;-86
2022/12/25 10:41:26;;;;;;;;;;;;;;;;;;4981191;28;19985;-86
2022/12/25 10:43:52;;;;;;;;;;;;;;;;;;4981010;28;19914;-85
2022/12/25 10:46:18;;;;;;;;;;;;;;;;;;4996941;28;19914;-86
2022/12/25 10:48:46;;;;;;;;;;;;;;;;;;4981414;28;19914;-86
2022/12/25 10:51:11;;;;;;;;;;;;;;;;;;4981526;28;20365;-86
2022/12/25 10:53:38;;;;;;;;;;;;;;;;;;4981690;28;19899;-85
2022/12/25 10:56:04;;;;;;;;;;;;;;;;;;4997674;28;19926;-86
2022/12/25 10:58:32;;;;;;;;;;;;;;;;;;4981276;28;19926;-86
2022/12/25 11:00:58;;;;;;;;;;;;;;;;;;4981038;28;19914;-86
2022/12/25 11:03:24;;;;;;;;;;;;;;;;;;5011067;23;19974;-86
2022/12/25 11:05:51;;;;;;;;;;;;;;;;;;4977819;28;20264;-86
2022/12/25 11:08:20;;;;;;;;;;;;;;;;;;4982462;29;19909;-87
2022/12/25 11:10:51;;;;;;;;;;;;;;;;;;4997487;28;19922;-86
2022/12/25 11:13:20;;;;;;;;;;;;;;;;;;4997216;28;19930;-85
2022/12/25 11:15:46;;;;;;;;;;;;;;;;;;4964938;29;19914;-85
2022/12/25 11:18:12;;;;;;;;;;;;;;;;;;4963301;29;19986;-85
2022/12/25 11:20:38;;;;;;;;;;;;;;;;;;4979909;28;19910;-85
2022/12/25 11:23:09;;;;;;;;;;;;;;;;;;4961637;29;20012;-83
2022/12/25 11:25:35;;;;;;;;;;;;;;;;;;4977057;29;19915;-83
2022/12/25 11:28:03;;;;;;;;;;;;;;;;;;4994241;28;19915;-86
2022/12/25 11:30:35;;;;;;;;;;;;;;;;;;4962793;29;19915;-84
2022/12/25 11:33:01;;;;;;;;;;;;;;;;;;4976902;23;19933;-94
2022/12/25 11:35:26;;;;;;;;;;;;;;;;;;4964620;28;19918;-92
2022/12/25 11:37:51;;;;;;;;;;;;;;;;;;4966167;28;20000;-92
2022/12/25 11:40:17;;;;;;;;;;;;;;;;;;4966069;28;20021;-92
2022/12/25 11:42:43;;;;;;;;;;;;;;;;;;4981156;28;19929;-94
2022/12/25 11:45:08;;;;;;;;;;;;;;;;;;4965952;28;19968;-89
2022/12/25 11:47:34;;;;;;;;;;;;;;;;;;4967249;28;20290;-91
2022/12/25 11:50:01;;;;;;;;;;;;;;;;;;4981559;28;19921;-94
2022/12/25 11:52:27;;;;;;;;;;;;;;;;;;4963715;28;20008;-93
2022/12/25 11:54:53;;;;;;;;;;;;;;;;;;4981791;28;19918;-93
2022/12/25 11:57:18;;;;;;;;;;;;;;;;;;4968204;28;19918;-91
2022/12/25 11:59:43;;;;;;;;;;;;;;;;;;4977905;28;19914;-91
2022/12/25 12:02:09;;;;;;;;;;;;;;;;;;4981894;28;20306;-92
2022/12/25 12:04:34;;;;;;;;;;;;;;;;;;4978902;28;19920;-93
2022/12/25 12:07:00;;;;;;;;;;;;;;;;;;4963863;28;19914;-90
2022/12/25 12:09:28;;;;;;;;;;;;;;;;;;4979852;28;19930;-93
2022/12/25 12:11:53;;;;;;;;;;;;;;;;;;4980365;28;19921;-92
2022/12/25 12:14:19;;;;;;;;;;;;;;;;;;4995240;28;19915;-91
2022/12/25 12:16:44;;;;;;;;;;;;;;;;;;4981803;28;19918;-91
2022/12/25 12:19:09;;;;;;;;;;;;;;;;;;4995352;28;20016;-91
2022/12/25 12:21:35;;;;;;;;;;;;;;;;;;4981948;28;19914;-89
2022/12/25 12:24:01;;;;;;;;;;;;;;;;;;4965835;28;19938;-91
2022/12/25 12:26:26;;;;;;;;;;;;;;;;;;4980454;28;19941;-92
2022/12/25 12:28:52;;;;;;;;;;;;;;;;;;4981718;28;19914;-92
2022/12/25 12:31:17;;;;;;;;;;;;;;;;;;4981925;28;19945;-93
2022/12/25 12:33:43;;;;;;;;;;;;;;;;;;4966532;28;20378;-92
2022/12/25 12:36:08;;;;;;;;;;;;;;;;;;4966314;28;19918;-91
2022/12/25 12:38:33;;;;;;;;;;;;;;;;;;4966712;28;20009;-91
2022/12/25 12:40:59;;;;;;;;;;;;;;;;;;4966740;28;19921;-91
2022/12/25 12:43:24;;;;;;;;;;;;;;;;;;4966660;28;19921;-91
2022/12/25 12:45:50;;;;;;;;;;;;;;;;;;4982864;28;19954;-90
2022/12/25 12:48:15;;;;;;;;;;;;;;;;;;4967039;28;19920;-92
2022/12/25 12:50:41;;;;;;;;;;;;;;;;;;4951468;28;19984;-92
2022/12/25 12:53:06;;;;;;;;;;;;;;;;;;4983480;28;19921;-94
2022/12/25 12:55:31;;;;;;;;;;;;;;;;;;4967148;28;19918;-91
2022/12/25 12:57:57;;;;;;;;;;;;;;;;;;4968876;28;19910;-95
2022/12/25 13:00:22;;;;;;;;;;;;;;;;;;4966612;28;19914;-94
2022/12/25 13:02:48;;;;;;;;;;;;;;;;;;4950053;28;19987;-92
2022/12/25 13:05:16;;;;;;;;;;;;;;;;;;4982634;28;19992;-93
2022/12/25 13:07:43;;;;;;;;;;;;;;;;;;4966917;28;19914;-93
2022/12/25 13:10:09;;;;;;;;;;;;;;;;;;4965950;28;20425;-91
2022/12/25 13:12:34;;;;;;;;;;;;;;;;;;4964578;28;19917;-91
2022/12/25 13:15:00;;;;;;;;;;;;;;;;;;4981194;28;19970;-93
2022/12/25 13:17:28;;;;;;;;;;;;;;;;;;4966065;28;19986;-92
2022/12/25 13:19:54;;;;;;;;;;;;;;;;;;4965243;28;19914;-93
2022/12/25 13:22:25;;;;;;;;;;;;;;;;;;4966984;28;19964;-92
2022/12/25 13:24:53;;;;;;;;;;;;;;;;;;4964141;28;19914;-91
2022/12/25 13:27:18;;;;;;;;;;;;;;;;;;4959942;28;19937;-92
2022/12/25 13:29:44;;;;;;;;;;;;;;;;;;4961238;28;19918;-91
2022/12/25 13:32:14;;;;;;;;;;;;;;;;;;4960509;28;20053;-94
2022/12/25 13:34:39;;;;;;;;;;;;;;;;;;4960186;28;20382;-93
2022/12/25 13:37:05;;;;;;;;;;;;;;;;;;4961025;28;19918;-91
2022/12/25 13:39:30;;;;;;;;;;;;;;;;;;4969978;28;19915;-92
2022/12/25 13:42:05;;;;;;;;;;;;;;;;;;4989810;28;19914;-90
2022/12/25 13:44:33;;;;;;;;;;;;;;;;;;4983573;28;19914;-91
2022/12/25 13:47:06;;;;;;;;;;;;;;;;;;4970418;28;19915;-91
2022/12/25 13:49:31;;;;;;;;;;;;;;;;;;4985013;28;20421;-90
2022/12/25 13:51:59;;;;;;;;;;;;;;;;;;4988709;28;19924;-92
2022/12/25 13:54:25;;;;;;;;;;;;;;;;;;4984928;28;20334;-90
2022/12/25 13:56:51;;;;;;;;;;;;;;;;;;4969770;28;19918;-92
2022/12/25 13:59:16;;;;;;;;;;;;;;;;;;4995695;28;19914;-91
2022/12/25 14:01:41;;;;;;;;;;;;;;;;;;4993751;28;19985;-91
2022/12/25 14:04:07;;;;;;;;;;;;;;;;;;4974048;28;19961;-91
2022/12/25 14:06:32;;;;;;;;;;;;;;;;;;4972735;28;19914;-92
2022/12/25 14:08:58;;;;;;;;;;;;;;;;;;4968846;28;19914;-92
2022/12/25 14:11:23;;;;;;;;;;;;;;;;;;4959674;28;19968;-93
2022/12/25 14:13:48;;;;;;;;;;;;;;;;;;4977236;28;19929;-92
2022/12/25 14:16:14;;;;;;;;;;;;;;;;;;4959482;28;20106;-92
2022/12/25 14:18:39;;;;;;;;;;;;;;;;;;4974484;28;19914;-93
2022/12/25 14:21:05;;;;;;;;;;;;;;;;;;4957675;28;19922;-93
2022/12/25 14:23:30;;;;;;;;;;;;;;;;;;4973795;28;19914;-92
2022/12/25 14:25:55;;;;;;;;;;;;;;;;;;4958971;28;19929;-92
2022/12/25 14:28:21;;;;;;;;;;;;;;;;;;4977049;28;20378;-93
2022/12/25 14:30:46;;;;;;;;;;;;;;;;;;4960488;28;19915;-93
2022/12/25 14:33:12;;;;;;;;;;;;;;;;;;4960440;28;19922;-92
2022/12/25 14:35:37;;;;;;;;;;;;;;;;;;4974473;28;19925;-92
2022/12/25 14:38:02;;;;;;;;;;;;;;;;;;4975267;28;20306;-93
2022/12/25 14:40:29;;;;;;;;;;;;;;;;;;4973823;28;20138;-93
2022/12/25 14:42:55;;;;;;;;;;;;;;;;;;4973459;28;19915;-91
2022/12/25 14:45:20;;;;;;;;;;;;;;;;;;4974349;28;19914;-92
2022/12/25 14:47:46;;;;;;;;;;;;;;;;;;4941868;28;19958;-92
2022/12/25 14:50:11;;;;;;;;;;;;;;;;;;4958207;28;19914;-91
2022/12/25 14:52:37;;;;;;;;;;;;;;;;;;4973320;28;20005;-92
2022/12/25 14:55:02;;;;;;;;;;;;;;;;;;4957933;28;20297;-92
2022/12/25 14:57:28;;;;;;;;;;;;;;;;;;4973561;28;19930;-92
2022/12/25 14:59:53;;;;;;;;;;;;;;;;;;4957232;28;19918;-92
2022/12/25 15:02:18;;;;;;;;;;;;;;;;;;4957318;28;20274;-93
2022/12/25 15:04:44;;;;;;;;;;;;;;;;;;4989864;28;19919;-94
2022/12/25 15:07:10;;;;;;;;;;;;;;;;;;4973389;28;20362;-90
2022/12/25 15:09:36;;;;;;;;;;;;;;;;;;4957226;28;19957;-92
2022/12/25 15:12:01;;;;;;;;;;;;;;;;;;4957256;28;19914;-91
2022/12/25 15:14:30;;;;;;;;;;;;;;;;;;4957507;28;20283;-92
2022/12/25 15:16:56;;;;;;;;;;;;;;;;;;4973756;28;20381;-92
2022/12/25 15:19:21;;;;;;;;;;;;;;;;;;4957124;28;19921;-93
2022/12/25 15:21:47;;;;;;;;;;;;;;;;;;4957027;28;20350;-91
2022/12/25 15:24:12;;;;;;;;;;;;;;;;;;4957061;28;19921;-93
2022/12/25 15:26:37;;;;;;;;;;;;;;;;;;4973648;28;19918;-92
2022/12/25 15:29:05;;;;;;;;;;;;;;;;;;4973123;28;19918;-91
2022/12/25 15:31:30;;;;;;;;;;;;;;;;;;4941786;28;19969;-91
2022/12/25 15:33:55;;;;;;;;;;;;;;;;;;4973293;28;19964;-91
2022/12/25 15:36:21;;;;;;;;;;;;;;;;;;4959410;28;19918;-89
2022/12/25 15:38:46;;;;;;;;;;;;;;;;;;4973757;28;19918;-90
2022/12/25 15:42:09;;;;;;;;;;;;;;;;;;4974214;28;20014;-92
2022/12/25 15:43:57;;;;;;;;;;;;;;;;;;4957350;28;19914;-92
2022/12/25 15:46:23;;;;;;;;;;;;;;;;;;4957563;28;19961;-92
2022/12/25 15:48:48;;;;;;;;;;;;;;;;;;4957601;28;19998;-93
2022/12/25 15:51:14;;;;;;;;;;;;;;;;;;4941290;28;20370;-93
2022/12/25 15:53:39;;;;;;;;;;;;;;;;;;4959912;28;19914;-92
2022/12/25 15:56:05;;;;;;;;;;;;;;;;;;4960754;28;19918;-92
2022/12/25 15:58:30;;;;;;;;;;;;;;;;;;4961152;28;19915;-93
2022/12/25 16:00:55;;;;;;;;;;;;;;;;;;4960989;28;20313;-93
2022/12/25 16:03:21;;;;;;;;;;;;;;;;;;4960967;28;20401;-94
2022/12/25 16:05:46;;;;;;;;;;;;;;;;;;4960789;28;19915;-94
2022/12/25 16:08:12;;;;;;;;;;;;;;;;;;4960876;28;19921;-92
2022/12/25 16:10:37;;;;;;;;;;;;;;;;;;4960822;28;19914;-92
2022/12/25 16:13:02;;;;;;;;;;;;;;;;;;4961308;28;19914;-92
2022/12/25 16:15:28;;;;;;;;;;;;;;;;;;4963010;28;19933;-91
2022/12/25 16:17:53;;;;;;;;;;;;;;;;;;4965000;28;20366;-92
2022/12/25 16:20:21;;;;;;;;;;;;;;;;;;4979432;28;20394;-91
2022/12/25 16:22:46;;;;;;;;;;;;;;;;;;4965928;28;19929;-90
2022/12/25 16:25:14;;;;;;;;;;;;;;;;;;4949630;28;21633;-90
2022/12/25 16:27:39;;;;;;;;;;;;;;;;;;4965649;28;19914;-92
2022/12/25 16:30:05;;;;;;;;;;;;;;;;;;4964894;28;19977;-91
2022/12/25 16:32:30;;;;;;;;;;;;;;;;;;4962309;28;20286;-92
2022/12/25 16:34:55;;;;;;;;;;;;;;;;;;4960738;28;20310;-92
2022/12/25 16:37:21;;;;;;;;;;;;;;;;;;4960237;28;20020;-92
2022/12/25 16:39:49;;;;;;;;;;;;;;;;;;4976590;28;19968;-91
2022/12/25 16:42:14;;;;;;;;;;;;;;;;;;4960019;28;19918;-92
2022/12/25 16:44:40;;;;;;;;;;;;;;;;;;4977000;28;20294;-93
2022/12/25 16:47:05;;;;;;;;;;;;;;;;;;4961430;28;20016;-93
2022/12/25 16:49:31;;;;;;;;;;;;;;;;;;4960934;28;19914;-93
2022/12/25 16:51:56;;;;;;;;;;;;;;;;;;4976977;28;19918;-92
2022/12/25 16:54:22;;;;;;;;;;;;;;;;;;4960766;28;19965;-93
2022/12/25 16:56:47;;;;;;;;;;;;;;;;;;4961884;28;20337;-94
2022/12/25 16:59:13;;;;;;;;;;;;;;;;;;4960815;28;19914;-92
2022/12/25 17:01:41;;;;;;;;;;;;;;;;;;4960254;28;19917;-93
2022/12/25 17:04:07;;;;;;;;;;;;;;;;;;4959177;28;19914;-92
2022/12/25 17:06:32;;;;;;;;;;;;;;;;;;4943811;28;19938;-94
2022/12/25 17:09:01;;;;;;;;;;;;;;;;;;4960126;28;19914;-93
2022/12/25 17:11:28;;;;;;;;;;;;;;;;;;4959898;28;19914;-93
2022/12/25 17:13:54;;;;;;;;;;;;;;;;;;4959828;28;19920;-93
2022/12/25 17:16:22;;;;;;;;;;;;;;;;;;4960287;28;19922;-92
2022/12/25 17:18:49;;;;;;;;;;;;;;;;;;4960597;28;19914;-92
2022/12/25 17:21:15;;;;;;;;;;;;;;;;;;4944274;28;19924;-94
2022/12/25 17:23:40;;;;;;;;;;;;;;;;;;4959153;28;19953;-92
2022/12/25 17:26:06;;;;;;;;;;;;;;;;;;4959158;28;19921;-93
2022/12/25 17:28:31;;;;;;;;;;;;;;;;;;4959272;28;20322;-94
2022/12/25 17:30:57;;;;;;;;;;;;;;;;;;4975445;28;20342;-93
2022/12/25 17:33:22;;;;;;;;;;;;;;;;;;4962583;28;19918;-90
2022/12/25 17:35:48;;;;;;;;;;;;;;;;;;4945823;28;19918;-92
2022/12/25 17:38:13;;;;;;;;;;;;;;;;;;4962556;28;19940;-92
2022/12/25 17:40:39;;;;;;;;;;;;;;;;;;4961342;28;19914;-93
2022/12/25 17:43:04;;;;;;;;;;;;;;;;;;4959123;28;20375;-94
2022/12/25 17:45:30;;;;;;;;;;;;;;;;;;4958937;28;19914;-92
2022/12/25 17:47:56;;;;;;;;;;;;;;;;;;4958694;28;19958;-92
2022/12/25 17:50:24;;;;;;;;;;;;;;;;;;4942898;28;20297;-93
2022/12/25 17:52:49;;;;;;;;;;;;;;;;;;4942643;28;19914;-93
2022/12/25 17:55:15;;;;;;;;;;;;;;;;;;4958982;28;19918;-94
2022/12/25 17:57:40;;;;;;;;;;;;;;;;;;4961787;28;19917;-91
2022/12/25 18:00:06;;;;;;;;;;;;;;;;;;4962564;28;19914;-94
2022/12/25 18:02:32;;;;;;;;;;;;;;;;;;4960852;28;19969;-92
2022/12/25 18:04:57;;;;;;;;;;;;;;;;;;4961975;28;19914;-92
2022/12/25 18:07:23;;;;;;;;;;;;;;;;;;4961287;28;19921;-92
2022/12/25 18:09:51;;;;;;;;;;;;;;;;;;4963254;28;20030;-95
2022/12/25 18:12:20;;;;;;;;;;;;;;;;;;4961858;28;19920;-92
2022/12/25 18:14:45;;;;;;;;;;;;;;;;;;4961008;28;20348;-94
2022/12/25 18:17:13;;;;;;;;;;;;;;;;;;4961204;28;19922;-89
2022/12/25 18:19:38;;;;;;;;;;;;;;;;;;4961264;28;19914;-92
2022/12/25 18:22:04;;;;;;;;;;;;;;;;;;4961846;28;20377;-94
2022/12/25 18:24:29;;;;;;;;;;;;;;;;;;4962583;28;19914;-94
2022/12/25 18:26:55;;;;;;;;;;;;;;;;;;4963129;28;20255;-95
2022/12/25 18:29:23;;;;;;;;;;;;;;;;;;4946111;28;20230;-93
2022/12/25 18:31:53;;;;;;;;;;;;;;;;;;4946747;28;19914;-94
2022/12/25 18:34:20;;;;;;;;;;;;;;;;;;4961647;28;19918;-93
2022/12/25 18:36:45;;;;;;;;;;;;;;;;;;4964079;28;19921;-92
2022/12/25 18:39:11;;;;;;;;;;;;;;;;;;4963704;28;19930;-94
2022/12/25 18:42:37;;;;;;;;;;;;;;;;;;4962474;28;19914;-92
2022/12/25 18:44:21;;;;;;;;;;;;;;;;;;4977794;28;20021;-94
2022/12/25 18:46:47;;;;;;;;;;;;;;;;;;4963434;28;19964;-94
2022/12/25 18:49:12;;;;;;;;;;;;;;;;;;4965264;28;19915;-94
2022/12/25 18:51:38;;;;;;;;;;;;;;;;;;4966066;28;20027;-93